Alcolu, SC

12:49 PM EST on March 04, 2015 (GMT -0500)
Sumter Municipal | Change Station
CLOSE
Current Station
Airport
Location: Sumter,
Elevation: 184 ft
Nearby Weather Stations

Elev 184 ft 34.00 °N, 80.36 °W | Updated 14 minutes ago

Overcast
Overcast
77 °F
Feels Like 77 °F
N
15
Wind Variable Wind from WSW
Gusts 24 mph

Today
High -- | Low -- °F
--% Chance of Precip.
Yesterday
High -- | Low -- °F
Precip. -- in
6:45 AM 6:19 PM
Waxing Gibbous, 99% visible
Pressure 30.02 in
Visibility 10.0 miles
Clouds Few 3900 ft
Few 5000 ft
Mostly Cloudy 5500 ft
Dew Point 64 °F
Humidity 65%
Rainfall 0.00 in
Snow Depth Not available.
UV 4 out of 12
Pollen 9.70 out of 12
Air Quality Not available.
Flu Activity Not available.
METAR KSMS 041735Z AUTO 24013G21KT 10SM FEW039 FEW050 BKN055 25/18 A3002 RMK AO2

More Conditions Fewer Conditions

Pressure 30.02 in
Visibility 10.0 miles
Clouds Few 3900 ft
Few 5000 ft
Mostly Cloudy 5500 ft
Dew Point 64 °F
Humidity 65%
Rainfall 0.00 in
Snow Depth Not available.
UV 4 out of 12
Pollen 9.70 out of 12
Air Quality Not available.
Flu Activity Not available.
METAR KSMS 041735Z AUTO 24013G21KT 10SM FEW039 FEW050 BKN055 25/18 A3002 RMK AO2

More Conditions Fewer Conditions

10-Day Weather Forecast

Almanac

Astronomy

Mar. 04, 2015 Rise Set
Actual Time
Civil Twilight
Nautical Twilight
Astronomical Twilight
Moon
Length of Visible Light
Length of Day
Tomorrow will be .
, % of the Moon is Illuminated

Today's Extremes

State Highs State Lows

Community

WunderPhotos

Upload Photos

1,802,515 photos uploaded!

WunderBlogs® & News

Nearby

Air Quality

  Air Quality AQ Index Pollutant
Not available.

Snow Depth

Station Depth Elevation

Earthquake Activity

City Distance Mag. Time & Date
Minimum magnitude displayed is 2.5.

Coastal Water Temperatures

Place Temperature

Nearby Weather Stations